Time;durP1;ratioP1;P1;durP2;ratioP2;P2;SDS_P1;SDS_P2;PMS_P1;PMS_P2;Temp;Humidity;BMP_temperature;BMP_pressure;BME280_temperature;BME280_humidity;BME280_pressure;Samples;Min_cycle;Max_cycle;Signal;HPM_P1;HPM_P2
2024/01/13 00:01:24;;;;;;;7.75;1.55;;;;;;;;;;5044008;28;20049;-74
2024/01/13 00:03:55;;;;;;;6.40;0.90;;;;;;;;;;5052218;28;20032;-74
2024/01/13 00:06:27;;;;;;;6.75;1.00;;;;;;;;;;5052834;28;20059;-73
2024/01/13 00:08:57;;;;;;;5.63;1.05;;;;;;;;;;5053558;28;20511;-74
2024/01/13 00:11:28;;;;;;;6.45;0.98;;;;;;;;;;5044801;28;20056;-74
2024/01/13 00:13:59;;;;;;;7.45;0.85;;;;;;;;;;5042739;28;20045;-74
2024/01/13 00:16:29;;;;;;;7.00;0.98;;;;;;;;;;5043449;28;20053;-74
2024/01/13 00:19:00;;;;;;;14.20;1.38;;;;;;;;;;5044856;28;20053;-74
2024/01/13 00:21:30;;;;;;;5.57;0.95;;;;;;;;;;5043605;28;20053;-74
2024/01/13 00:24:01;;;;;;;5.78;0.80;;;;;;;;;;5043477;28;20045;-72
2024/01/13 00:26:31;;;;;;;5.88;0.70;;;;;;;;;;5043450;28;20451;-73
2024/01/13 00:29:01;;;;;;;7.18;1.20;;;;;;;;;;5043603;28;20053;-74
2024/01/13 00:31:33;;;;;;;6.45;0.77;;;;;;;;;;5044108;28;20048;-74
2024/01/13 00:34:04;;;;;;;7.85;0.88;;;;;;;;;;5044572;28;20045;-73
2024/01/13 00:36:35;;;;;;;6.32;0.80;;;;;;;;;;5043869;28;20064;-73
2024/01/13 00:39:07;;;;;;;8.65;1.20;;;;;;;;;;5042900;28;20053;-74
2024/01/13 00:41:37;;;;;;;8.23;0.90;;;;;;;;;;5044063;28;20068;-73
2024/01/13 00:44:09;;;;;;;10.80;0.98;;;;;;;;;;5043396;28;20514;-75
2024/01/13 00:46:39;;;;;;;7.93;1.25;;;;;;;;;;5043494;28;20045;-72
2024/01/13 00:49:09;;;;;;;7.85;0.93;;;;;;;;;;5043933;28;20874;-75
2024/01/13 00:51:40;;;;;;;12.90;1.48;;;;;;;;;;5044366;28;20116;-72
2024/01/13 00:54:12;;;;;;;6.30;0.73;;;;;;;;;;5044461;28;20056;-72
2024/01/13 00:56:42;;;;;;;5.75;0.80;;;;;;;;;;5044067;28;20045;-71
2024/01/13 00:59:13;;;;;;;7.38;0.90;;;;;;;;;;5042870;28;20037;-71
2024/01/13 01:01:43;;;;;;;2.05;0.47;;;;;;;;;;5044046;28;20508;-71
2024/01/13 01:04:14;;;;;;;7.13;0.90;;;;;;;;;;5043057;28;20120;-71
2024/01/13 01:06:46;;;;;;;8.35;1.02;;;;;;;;;;5043287;28;20420;-72
2024/01/13 01:09:17;;;;;;;7.10;1.15;;;;;;;;;;5043337;28;20053;-71
2024/01/13 01:11:47;;;;;;;5.93;1.10;;;;;;;;;;5043756;28;20052;-71
2024/01/13 01:14:18;;;;;;;5.60;0.85;;;;;;;;;;5042995;28;20064;-71
2024/01/13 01:16:49;;;;;;;6.60;0.80;;;;;;;;;;5042920;28;20056;-73
2024/01/13 01:19:20;;;;;;;7.63;1.08;;;;;;;;;;5043134;28;20048;-74
2024/01/13 01:21:50;;;;;;;8.65;1.05;;;;;;;;;;5043307;28;20616;-76
2024/01/13 01:24:22;;;;;;;8.18;1.20;;;;;;;;;;5042699;28;20068;-74
2024/01/13 01:26:53;;;;;;;6.03;1.00;;;;;;;;;;5044136;28;20071;-72
2024/01/13 01:29:24;;;;;;;11.00;0.98;;;;;;;;;;5043076;28;20599;-74
2024/01/13 01:31:53;;;;;;;7.25;0.85;;;;;;;;;;5025940;28;21039;-75
2024/01/13 01:34:24;;;;;;;4.82;0.60;;;;;;;;;;5042899;28;20032;-75
2024/01/13 01:36:55;;;;;;;8.65;0.77;;;;;;;;;;5043327;28;20075;-74
2024/01/13 01:39:26;;;;;;;10.60;1.20;;;;;;;;;;5041478;28;20442;-74
2024/01/13 01:41:57;;;;;;;7.10;1.05;;;;;;;;;;5042836;28;20052;-74
2024/01/13 01:44:27;;;;;;;6.20;0.73;;;;;;;;;;5042713;28;20483;-74
2024/01/13 01:46:59;;;;;;;6.97;0.95;;;;;;;;;;5043219;28;20483;-74
2024/01/13 01:49:31;;;;;;;2.10;0.60;;;;;;;;;;5042553;28;20049;-75
2024/01/13 01:52:02;;;;;;;6.15;0.85;;;;;;;;;;5042256;28;20440;-74
2024/01/13 01:54:34;;;;;;;9.07;0.90;;;;;;;;;;5042996;28;20045;-74
2024/01/13 01:57:06;;;;;;;17.00;1.05;;;;;;;;;;5040466;28;20052;-71
2024/01/13 01:59:38;;;;;;;8.50;1.00;;;;;;;;;;5042186;28;20110;-72
2024/01/13 02:02:08;;;;;;;7.43;0.93;;;;;;;;;;5042107;28;20045;-73
2024/01/13 02:04:38;;;;;;;8.57;0.77;;;;;;;;;;5040978;28;20048;-73
2024/01/13 02:07:09;;;;;;;4.22;1.00;;;;;;;;;;5042011;28;20053;-75
2024/01/13 02:09:41;;;;;;;7.68;1.02;;;;;;;;;;5042492;28;20053;-74
2024/01/13 02:12:11;;;;;;;5.70;0.65;;;;;;;;;;5042375;28;20056;-71
2024/01/13 02:14:42;;;;;;;7.63;0.90;;;;;;;;;;5042826;28;20041;-72
2024/01/13 02:17:13;;;;;;;13.40;1.60;;;;;;;;;;5042259;28;20041;-75
2024/01/13 02:19:43;;;;;;;13.35;1.45;;;;;;;;;;5041969;28;20049;-74
2024/01/13 02:22:14;;;;;;;5.03;0.80;;;;;;;;;;5041925;28;20052;-74
2024/01/13 02:24:44;;;;;;;12.38;1.20;;;;;;;;;;5041613;28;20045;-74
2024/01/13 02:27:15;;;;;;;5.07;0.70;;;;;;;;;;5042129;28;20064;-75
2024/01/13 02:29:47;;;;;;;6.05;0.90;;;;;;;;;;5041732;28;20500;-75
2024/01/13 02:32:19;;;;;;;9.85;0.90;;;;;;;;;;5041726;28;20041;-74
2024/01/13 02:34:49;;;;;;;6.35;0.88;;;;;;;;;;5042461;28;20052;-73
2024/01/13 02:37:19;;;;;;;5.57;0.75;;;;;;;;;;5041821;28;20423;-73
2024/01/13 02:39:49;;;;;;;7.55;0.77;;;;;;;;;;5041889;28;20500;-73
2024/01/13 02:42:19;;;;;;;7.82;1.02;;;;;;;;;;5041901;28;20053;-72
2024/01/13 02:44:51;;;;;;;4.32;0.88;;;;;;;;;;5042572;28;20053;-73
2024/01/13 02:47:36;;;;;;;7.38;1.20;;;;;;;;;;5042339;28;20064;-72
2024/01/13 02:50:07;;;;;;;4.18;0.70;;;;;;;;;;5041624;28;20049;-73
2024/01/13 02:52:40;;;;;;;7.80;0.90;;;;;;;;;;5041858;28;20053;-74
2024/01/13 02:55:11;;;;;;;6.65;0.70;;;;;;;;;;5041680;28;20056;-75
2024/01/13 02:57:44;;;;;;;7.47;1.00;;;;;;;;;;5041566;28;20041;-77
2024/01/13 03:00:17;;;;;;;8.43;0.85;;;;;;;;;;5041269;28;20037;-73
2024/01/13 03:02:48;;;;;;;4.78;0.77;;;;;;;;;;5042016;28;20045;-72
2024/01/13 03:05:19;;;;;;;6.72;1.00;;;;;;;;;;5042177;28;20424;-71
2024/01/13 03:07:49;;;;;;;3.60;0.80;;;;;;;;;;5043053;28;20059;-72
2024/01/13 03:10:19;;;;;;;3.67;0.60;;;;;;;;;;5045607;28;20075;-72
2024/01/13 03:12:50;;;;;;;7.10;1.00;;;;;;;;;;5045567;28;20045;-71
2024/01/13 03:15:20;;;;;;;9.13;1.23;;;;;;;;;;5045327;28;20416;-73
2024/01/13 03:17:51;;;;;;;3.22;1.10;;;;;;;;;;5046052;28;20044;-71
2024/01/13 03:20:22;;;;;;;10.77;1.17;;;;;;;;;;5044195;28;20049;-73
2024/01/13 03:22:54;;;;;;;4.93;1.38;;;;;;;;;;5044939;28;20072;-72
2024/01/13 03:25:24;;;;;;;4.60;1.02;;;;;;;;;;5044081;28;20067;-73
2024/01/13 03:27:55;;;;;;;8.05;1.00;;;;;;;;;;5045210;28;20041;-71
2024/01/13 03:30:25;;;;;;;8.75;1.33;;;;;;;;;;5045543;28;20052;-72
2024/01/13 03:32:55;;;;;;;7.55;0.90;;;;;;;;;;5045940;28;20096;-73
2024/01/13 03:35:27;;;;;;;8.60;1.45;;;;;;;;;;5044927;28;20068;-71
2024/01/13 03:37:58;;;;;;;11.45;1.25;;;;;;;;;;5045050;28;20531;-72
2024/01/13 03:40:28;;;;;;;4.47;0.90;;;;;;;;;;5045090;28;20052;-72
2024/01/13 03:42:58;;;;;;;6.50;1.05;;;;;;;;;;5044927;28;20499;-72
2024/01/13 03:45:29;;;;;;;4.20;0.88;;;;;;;;;;5042972;28;20049;-73
2024/01/13 03:48:00;;;;;;;5.72;0.85;;;;;;;;;;5044541;28;20049;-71
2024/01/13 03:50:30;;;;;;;2.90;0.57;;;;;;;;;;5044890;28;20044;-71
2024/01/13 03:53:01;;;;;;;4.43;0.73;;;;;;;;;;5044905;28;20060;-73
2024/01/13 03:55:32;;;;;;;5.60;0.90;;;;;;;;;;5045020;28;20052;-73
2024/01/13 03:58:03;;;;;;;12.70;2.17;;;;;;;;;;5044328;28;20053;-73
2024/01/13 04:00:34;;;;;;;7.28;0.80;;;;;;;;;;5044460;28;20060;-72
2024/01/13 04:03:04;;;;;;;8.10;0.90;;;;;;;;;;5044573;28;20494;-73
2024/01/13 04:05:35;;;;;;;4.78;0.65;;;;;;;;;;5044632;28;20049;-71
2024/01/13 04:08:06;;;;;;;7.05;1.10;;;;;;;;;;5044985;28;20052;-74
2024/01/13 04:10:38;;;;;;;4.28;0.68;;;;;;;;;;5045827;28;20041;-73
2024/01/13 04:13:12;;;;;;;6.53;0.80;;;;;;;;;;5045000;28;20053;-72
2024/01/13 04:15:43;;;;;;;5.70;0.80;;;;;;;;;;5044439;28;20052;-72
2024/01/13 04:18:13;;;;;;;7.38;1.00;;;;;;;;;;5044207;28;20522;-73
2024/01/13 04:20:44;;;;;;;3.13;0.80;;;;;;;;;;5044287;28;20057;-71
2024/01/13 04:23:15;;;;;;;6.20;0.80;;;;;;;;;;5042445;28;20566;-71
2024/01/13 04:25:47;;;;;;;7.45;1.02;;;;;;;;;;5043892;28;20041;-71
2024/01/13 04:28:18;;;;;;;5.85;0.90;;;;;;;;;;5044139;28;20064;-72
2024/01/13 04:30:48;;;;;;;6.55;1.08;;;;;;;;;;5044333;28;20044;-72
2024/01/13 04:33:18;;;;;;;4.80;0.93;;;;;;;;;;5044214;28;20127;-72
2024/01/13 04:35:49;;;;;;;3.20;0.68;;;;;;;;;;5043797;28;20557;-72
2024/01/13 04:38:20;;;;;;;6.72;0.85;;;;;;;;;;5042791;28;20045;-73
2024/01/13 04:40:54;;;;;;;5.38;1.13;;;;;;;;;;5044478;28;20484;-70
2024/01/13 04:43:24;;;;;;;6.38;1.40;;;;;;;;;;5042849;28;20057;-72
2024/01/13 04:45:55;;;;;;;9.43;1.15;;;;;;;;;;5043744;28;20053;-72
2024/01/13 04:48:26;;;;;;;5.22;0.75;;;;;;;;;;5042349;28;20185;-76
2024/01/13 04:50:58;;;;;;;4.50;1.23;;;;;;;;;;5044135;28;20053;-73
2024/01/13 04:53:29;;;;;;;7.78;0.95;;;;;;;;;;5043282;28;20104;-72
2024/01/13 04:55:59;;;;;;;8.88;1.15;;;;;;;;;;5043805;28;20149;-72
2024/01/13 04:58:31;;;;;;;7.38;0.82;;;;;;;;;;5043367;28;20500;-71
2024/01/13 05:01:02;;;;;;;5.63;0.70;;;;;;;;;;5043442;28;20053;-73
2024/01/13 05:03:34;;;;;;;6.20;1.05;;;;;;;;;;5043366;28;20045;-73
2024/01/13 05:06:05;;;;;;;7.03;1.10;;;;;;;;;;5043090;28;20416;-73
2024/01/13 05:08:36;;;;;;;5.13;1.25;;;;;;;;;;5043351;28;20056;-73
2024/01/13 05:11:06;;;;;;;3.92;0.90;;;;;;;;;;5044194;28;20044;-73
2024/01/13 05:13:41;;;;;;;8.98;1.13;;;;;;;;;;5042097;28;20040;-72
2024/01/13 05:16:11;;;;;;;3.33;0.60;;;;;;;;;;5043835;28;20519;-71
2024/01/13 05:18:41;;;;;;;3.88;0.73;;;;;;;;;;5043037;28;20519;-72
2024/01/13 05:21:12;;;;;;;3.90;0.73;;;;;;;;;;5041390;28;20057;-72
2024/01/13 05:23:43;;;;;;;11.07;0.82;;;;;;;;;;5042944;28;20049;-71
2024/01/13 05:26:15;;;;;;;6.90;0.77;;;;;;;;;;5043630;28;20401;-72
2024/01/13 05:28:45;;;;;;;7.05;1.00;;;;;;;;;;5043205;28;20412;-72
2024/01/13 05:31:16;;;;;;;6.82;0.65;;;;;;;;;;5042018;28;20056;-73
2024/01/13 05:33:46;;;;;;;8.02;0.95;;;;;;;;;;5042761;28;20048;-72
2024/01/13 05:36:17;;;;;;;7.18;0.90;;;;;;;;;;5042958;28;20056;-73
2024/01/13 05:38:48;;;;;;;4.40;0.80;;;;;;;;;;5043190;28;20045;-73
2024/01/13 05:41:18;;;;;;;5.47;0.75;;;;;;;;;;5042491;28;20041;-73
2024/01/13 05:43:49;;;;;;;5.55;0.70;;;;;;;;;;5042138;28;20068;-73
2024/01/13 05:46:20;;;;;;;3.67;0.68;;;;;;;;;;5042891;28;20049;-73
2024/01/13 05:48:51;;;;;;;6.60;0.75;;;;;;;;;;5042638;28;20048;-70
2024/01/13 05:51:22;;;;;;;7.05;0.80;;;;;;;;;;5042840;28;20052;-71
2024/01/13 05:53:53;;;;;;;9.60;0.77;;;;;;;;;;5042407;28;20526;-71
2024/01/13 05:56:24;;;;;;;6.90;0.77;;;;;;;;;;5042087;28;20045;-72
2024/01/13 05:58:54;;;;;;;4.07;0.80;;;;;;;;;;5042316;28;20045;-72
2024/01/13 06:01:24;;;;;;;7.15;0.82;;;;;;;;;;5041889;28;20527;-72
2024/01/13 06:03:58;;;;;;;6.75;1.45;;;;;;;;;;5043032;28;20052;-72
2024/01/13 06:06:30;;;;;;;3.15;0.63;;;;;;;;;;5042251;28;20037;-73
2024/01/13 06:09:00;;;;;;;4.78;0.63;;;;;;;;;;5042800;28;20052;-71
2024/01/13 06:11:30;;;;;;;9.85;1.30;;;;;;;;;;5042289;28;20524;-72
2024/01/13 06:14:01;;;;;;;4.00;0.63;;;;;;;;;;5041759;28;20059;-71
2024/01/13 06:16:32;;;;;;;3.72;0.60;;;;;;;;;;5041916;28;20508;-73
2024/01/13 06:19:05;;;;;;;8.43;0.88;;;;;;;;;;5042322;28;20515;-72
2024/01/13 06:21:42;;;;;;;;;;;;;;;;;;5043088;28;20045;-72
2024/01/13 06:24:12;;;;;;;4.40;0.82;;;;;;;;;;5041966;28;19932;-71
2024/01/13 06:26:43;;;;;;;2.75;0.50;;;;;;;;;;5042360;28;20060;-72
2024/01/13 06:29:14;;;;;;;4.72;1.00;;;;;;;;;;5042138;28;20045;-73
2024/01/13 06:31:44;;;;;;;2.58;0.80;;;;;;;;;;5042300;28;20476;-73
2024/01/13 06:34:14;;;;;;;6.70;0.63;;;;;;;;;;5042249;28;20386;-72
2024/01/13 06:36:45;;;;;;;8.35;0.93;;;;;;;;;;5042275;28;20606;-71
2024/01/13 06:39:15;;;;;;;4.93;0.95;;;;;;;;;;5042999;28;20420;-73
2024/01/13 06:41:46;;;;;;;9.63;0.95;;;;;;;;;;5042039;28;20049;-71
2024/01/13 06:44:16;;;;;;;1.52;0.60;;;;;;;;;;5045847;28;20052;-72
2024/01/13 06:46:50;;;;;;;2.55;0.60;;;;;;;;;;5046383;28;20041;-72
2024/01/13 06:49:21;;;;;;;7.68;0.93;;;;;;;;;;5045882;28;20049;-73
2024/01/13 06:51:51;;;;;;;5.85;0.70;;;;;;;;;;5045706;28;20060;-71
2024/01/13 06:54:21;;;;;;;3.30;0.70;;;;;;;;;;5045331;28;20055;-72
2024/01/13 06:56:51;;;;;;;5.30;0.50;;;;;;;;;;5046260;28;20811;-71
2024/01/13 06:59:22;;;;;;;9.10;1.23;;;;;;;;;;5046089;28;20056;-71
2024/01/13 07:01:53;;;;;;;9.80;1.05;;;;;;;;;;5045234;28;20048;-71
2024/01/13 07:04:24;;;;;;;5.50;1.02;;;;;;;;;;5045921;28;20070;-73
2024/01/13 07:06:55;;;;;;;5.78;0.68;;;;;;;;;;5045941;28;20052;-72
2024/01/13 07:09:26;;;;;;;8.82;0.88;;;;;;;;;;5046442;28;20045;-73
2024/01/13 07:11:57;;;;;;;5.65;0.80;;;;;;;;;;5045482;28;20503;-72
2024/01/13 07:14:29;;;;;;;10.25;0.90;;;;;;;;;;5045710;28;20044;-71
2024/01/13 07:17:00;;;;;;;4.72;1.00;;;;;;;;;;5045894;28;20531;-71
2024/01/13 07:19:29;;;;;;;7.03;0.88;;;;;;;;;;5045204;28;20899;-72
2024/01/13 07:22:02;;;;;;;6.00;0.70;;;;;;;;;;5045300;28;20415;-72
2024/01/13 07:24:32;;;;;;;3.35;0.52;;;;;;;;;;5045097;28;20760;-73
2024/01/13 07:27:03;;;;;;;8.23;1.00;;;;;;;;;;5045641;28;20053;-72
2024/01/13 07:29:33;;;;;;;5.82;1.10;;;;;;;;;;5045217;28;20534;-71
2024/01/13 07:32:03;;;;;;;7.05;1.10;;;;;;;;;;5045696;28;20052;-71
2024/01/13 07:34:35;;;;;;;6.32;0.82;;;;;;;;;;5045051;28;20048;-73
2024/01/13 07:37:05;;;;;;;6.05;1.20;;;;;;;;;;5043405;28;20045;-71
2024/01/13 07:39:35;;;;;;;6.30;0.85;;;;;;;;;;5045583;28;20053;-73
2024/01/13 07:42:05;;;;;;;7.53;0.90;;;;;;;;;;5045376;28;20041;-73
2024/01/13 07:44:37;;;;;;;4.88;0.77;;;;;;;;;;5045255;28;20492;-73
2024/01/13 07:47:07;;;;;;;8.45;1.20;;;;;;;;;;5043323;28;20037;-72
2024/01/13 07:49:38;;;;;;;5.03;0.57;;;;;;;;;;5044985;28;20120;-72
2024/01/13 07:52:09;;;;;;;7.68;0.90;;;;;;;;;;5045090;28;20507;-72
2024/01/13 07:54:40;;;;;;;5.10;0.82;;;;;;;;;;5044151;28;20052;-73
2024/01/13 07:57:14;;;;;;;5.28;0.85;;;;;;;;;;5044626;28;20048;-71
2024/01/13 07:59:44;;;;;;;8.90;1.40;;;;;;;;;;5045347;28;20056;-71
2024/01/13 08:02:15;;;;;;;3.33;1.00;;;;;;;;;;5044577;28;20103;-72
2024/01/13 08:04:46;;;;;;;4.63;1.10;;;;;;;;;;5044062;28;20522;-71
2024/01/13 08:07:17;;;;;;;6.97;0.95;;;;;;;;;;5044960;28;20037;-72
2024/01/13 08:09:48;;;;;;;3.92;1.20;;;;;;;;;;5045604;28;20044;-70
2024/01/13 08:12:18;;;;;;;7.03;1.20;;;;;;;;;;5044334;28;20523;-73
2024/01/13 08:14:50;;;;;;;3.63;0.82;;;;;;;;;;5045235;28;21010;-72
2024/01/13 08:17:20;;;;;;;6.63;0.90;;;;;;;;;;5045110;28;20049;-72
2024/01/13 08:19:50;;;;;;;3.17;0.73;;;;;;;;;;5044023;28;20057;-71
2024/01/13 08:22:20;;;;;;;5.55;1.33;;;;;;;;;;5044526;28;20049;-71
2024/01/13 08:24:51;;;;;;;7.30;1.42;;;;;;;;;;5043381;28;20048;-71
2024/01/13 08:27:22;;;;;;;6.35;0.93;;;;;;;;;;5044785;28;20045;-73
2024/01/13 08:29:53;;;;;;;4.53;1.55;;;;;;;;;;5044078;28;20045;-72
2024/01/13 08:32:23;;;;;;;5.95;1.05;;;;;;;;;;5044247;28;20056;-73
2024/01/13 08:34:55;;;;;;;5.38;1.20;;;;;;;;;;5044353;28;20040;-72
2024/01/13 08:37:26;;;;;;;3.53;0.90;;;;;;;;;;5043912;28;20045;-73
2024/01/13 08:39:55;;;;;;;3.67;1.27;;;;;;;;;;5043088;28;20641;-71
2024/01/13 08:42:26;;;;;;;4.93;0.77;;;;;;;;;;5043497;28;20420;-73
2024/01/13 08:44:56;;;;;;;4.50;0.70;;;;;;;;;;5043688;28;20065;-71
2024/01/13 08:47:28;;;;;;;3.47;0.80;;;;;;;;;;5044438;28;20514;-72
2024/01/13 08:49:58;;;;;;;4.10;1.00;;;;;;;;;;5043828;28;20531;-72
2024/01/13 08:52:28;;;;;;;4.55;0.70;;;;;;;;;;5043912;28;20131;-73
2024/01/13 08:55:00;;;;;;;6.47;0.98;;;;;;;;;;5043490;28;20060;-72
2024/01/13 08:57:31;;;;;;;4.03;1.10;;;;;;;;;;5043560;28;20049;-73
2024/01/13 09:00:06;;;;;;;3.83;0.82;;;;;;;;;;5043796;28;20037;-72
2024/01/13 09:02:39;;;;;;;4.13;0.70;;;;;;;;;;5043229;28;20056;-72
2024/01/13 09:05:10;;;;;;;3.83;0.80;;;;;;;;;;5043550;28;20389;-72
2024/01/13 09:07:42;;;;;;;2.53;0.55;;;;;;;;;;5044948;28;20071;-72
2024/01/13 09:10:12;;;;;;;9.23;0.70;;;;;;;;;;5043038;28;20443;-73
2024/01/13 09:12:43;;;;;;;4.35;0.75;;;;;;;;;;5043189;28;20049;-72
2024/01/13 09:15:14;;;;;;;2.55;0.60;;;;;;;;;;5043311;28;20816;-72
2024/01/13 09:17:45;;;;;;;4.70;0.63;;;;;;;;;;5042975;28;20049;-72
2024/01/13 09:20:16;;;;;;;5.78;0.95;;;;;;;;;;5043084;28;20044;-71
2024/01/13 09:22:46;;;;;;;3.95;0.80;;;;;;;;;;5042904;28;20053;-73
2024/01/13 09:25:17;;;;;;;2.58;0.80;;;;;;;;;;5043584;28;20829;-73
2024/01/13 09:27:48;;;;;;;3.33;0.70;;;;;;;;;;5042726;28;20049;-73
2024/01/13 09:30:21;;;;;;;3.97;0.82;;;;;;;;;;5042798;28;20527;-72
2024/01/13 09:32:52;;;;;;;6.20;1.02;;;;;;;;;;5042853;28;20389;-73
2024/01/13 09:35:23;;;;;;;5.32;0.90;;;;;;;;;;5042960;28;20419;-71
2024/01/13 09:37:54;;;;;;;13.65;1.20;;;;;;;;;;5043790;28;20404;-71
2024/01/13 09:40:25;;;;;;;3.72;0.95;;;;;;;;;;5042956;28;20033;-72
2024/01/13 09:43:13;;;;;;;6.85;1.17;;;;;;;;;;5043390;28;20048;-72
2024/01/13 09:45:48;;;;;;;3.70;1.02;;;;;;;;;;5042554;28;20069;-73
2024/01/13 09:48:21;;;;;;;7.35;1.20;;;;;;;;;;5042578;28;20676;-71
2024/01/13 09:50:54;;;;;;;4.20;0.90;;;;;;;;;;5050998;28;20049;-72
2024/01/13 09:53:30;;;;;;;4.82;1.10;;;;;;;;;;5062195;28;20067;-71
2024/01/13 09:56:14;;;;;;;9.10;1.20;;;;;;;;;;5063120;28;20040;-75
2024/01/13 09:58:45;;;;;;;8.40;1.02;;;;;;;;;;5061769;28;20036;-71
2024/01/13 10:01:15;;;;;;;8.05;1.30;;;;;;;;;;5061985;28;20040;-72
2024/01/13 10:03:59;;;;;;;6.57;1.23;;;;;;;;;;5062483;28;20499;-71
2024/01/13 10:06:33;;;;;;;11.82;1.20;;;;;;;;;;5062623;28;20507;-72
2024/01/13 10:09:05;;;;;;;6.90;1.40;;;;;;;;;;5062362;28;20052;-73
2024/01/13 10:11:57;;;;;;;3.97;1.10;;;;;;;;;;5061139;28;20055;-73
2024/01/13 10:14:28;;;;;;;7.53;1.13;;;;;;;;;;5062358;28;20036;-72
2024/01/13 10:17:02;;;;;;;7.70;1.50;;;;;;;;;;5061519;28;20049;-75
2024/01/13 10:19:40;;;;;;;;;;;;;;;;;;5062443;28;20542;-73
2024/01/13 10:22:11;;;;;;;6.70;1.45;;;;;;;;;;5062275;28;19924;-78
2024/01/13 10:24:42;;;;;;;8.43;1.30;;;;;;;;;;5062779;28;20515;-73
2024/01/13 10:27:12;;;;;;;6.20;1.10;;;;;;;;;;5062664;28;20051;-73
2024/01/13 10:29:44;;;;;;;5.72;1.10;;;;;;;;;;5062025;28;20059;-72
2024/01/13 10:32:16;;;;;;;5.70;1.27;;;;;;;;;;5060782;28;20056;-73
2024/01/13 10:34:48;;;;;;;4.65;0.93;;;;;;;;;;5062201;28;20052;-74
2024/01/13 10:37:18;;;;;;;10.02;1.08;;;;;;;;;;5061028;28;20044;-73
2024/01/13 10:39:49;;;;;;;3.53;0.95;;;;;;;;;;5062242;28;20425;-73
2024/01/13 10:42:25;;;;;;;6.60;0.95;;;;;;;;;;5060669;28;20551;-74
2024/01/13 10:44:57;;;;;;;12.10;1.27;;;;;;;;;;5062173;28;20059;-73
2024/01/13 10:47:33;;;;;;;8.23;1.05;;;;;;;;;;5062240;28;20630;-72
2024/01/13 10:50:04;;;;;;;7.85;0.80;;;;;;;;;;5061599;28;20059;-73
2024/01/13 10:53:05;;;;;;;7.22;1.10;;;;;;;;;;5061028;28;20060;-74
2024/01/13 10:55:38;;;;;;;3.38;1.00;;;;;;;;;;5061925;28;20392;-73
2024/01/13 10:58:10;;;;;;;7.05;1.02;;;;;;;;;;5062101;28;20063;-72
2024/01/13 11:00:42;;;;;;;8.38;1.38;;;;;;;;;;5061457;28;20507;-74
2024/01/13 11:03:21;;;;;;;6.88;0.95;;;;;;;;;;5062689;28;20049;-73
2024/01/13 11:05:51;;;;;;;5.75;1.35;;;;;;;;;;5061593;28;20064;-72
2024/01/13 11:08:21;;;;;;;6.47;0.98;;;;;;;;;;5061537;28;20041;-74
2024/01/13 11:10:54;;;;;;;7.38;1.00;;;;;;;;;;5061720;28;20515;-73
2024/01/13 11:13:30;;;;;;;6.28;1.20;;;;;;;;;;5061350;28;20067;-73
2024/01/13 11:16:28;;;;;;;6.35;1.15;;;;;;;;;;5061468;28;20056;-73
2024/01/13 11:18:58;;;;;;;11.23;1.17;;;;;;;;;;5061347;28;20061;-74
2024/01/13 11:21:34;;;;;;;6.63;1.35;;;;;;;;;;5061372;28;20052;-73
2024/01/13 11:24:15;;;;;;;5.95;1.27;;;;;;;;;;5061418;28;20052;-74
2024/01/13 11:26:50;;;;;;;5.45;0.80;;;;;;;;;;5061871;28;20056;-74
2024/01/13 11:29:21;;;;;;;6.38;1.10;;;;;;;;;;5064031;28;20067;-74
2024/01/13 11:32:00;;;;;;;12.35;2.65;;;;;;;;;;5066196;28;20037;-73
2024/01/13 11:34:35;;;;;;;6.32;1.35;;;;;;;;;;5065394;28;20055;-74
2024/01/13 11:37:10;;;;;;;6.95;1.58;;;;;;;;;;5065745;28;20041;-73
2024/01/13 11:39:47;;;;;;;6.47;1.25;;;;;;;;;;5065147;28;20053;-74
2024/01/13 11:42:18;;;;;;;6.30;0.93;;;;;;;;;;5065070;28;20044;-73
2024/01/13 11:44:50;;;;;;;6.80;1.00;;;;;;;;;;5064905;28;20056;-77
2024/01/13 11:47:29;;;;;;;4.32;1.10;;;;;;;;;;5064521;28;20052;-73
2024/01/13 11:49:59;;;;;;;6.28;1.00;;;;;;;;;;5065129;28;20499;-73
2024/01/13 11:52:31;;;;;;;1.92;0.57;;;;;;;;;;5064107;28;20055;-74
2024/01/13 11:55:03;;;;;;;9.93;1.60;;;;;;;;;;5064758;28;20056;-75
2024/01/13 11:57:36;;;;;;;4.22;0.80;;;;;;;;;;5064635;28;20488;-73
2024/01/13 12:00:08;;;;;;;3.58;0.50;;;;;;;;;;5064574;28;20052;-72
2024/01/13 12:02:38;;;;;;;27.02;7.88;;;;;;;;;;5064695;28;20055;-74
2024/01/13 12:05:09;;;;;;;4.82;1.25;;;;;;;;;;5064559;28;20062;-73
2024/01/13 12:07:40;;;;;;;2.50;0.75;;;;;;;;;;5064963;28;20040;-73
2024/01/13 12:10:11;;;;;;;2.10;0.70;;;;;;;;;;5064623;28;20045;-74
2024/01/13 12:12:41;;;;;;;5.18;1.15;;;;;;;;;;5064135;28;20048;-75
2024/01/13 12:15:11;;;;;;;6.72;1.13;;;;;;;;;;5064224;28;20044;-74
2024/01/13 12:17:42;;;;;;;4.03;0.77;;;;;;;;;;5064622;28;20040;-73
2024/01/13 12:20:13;;;;;;;5.85;0.70;;;;;;;;;;5063132;28;20061;-76
2024/01/13 12:22:43;;;;;;;4.57;0.80;;;;;;;;;;5064296;28;20504;-73
2024/01/13 12:25:14;;;;;;;4.63;0.88;;;;;;;;;;5064669;28;20048;-74
2024/01/13 12:27:45;;;;;;;5.53;0.70;;;;;;;;;;5064364;28;20075;-74
2024/01/13 12:30:21;;;;;;;5.65;0.80;;;;;;;;;;5064332;28;20086;-74
2024/01/13 12:32:52;;;;;;;4.10;0.70;;;;;;;;;;5064035;28;20053;-74
2024/01/13 12:35:26;;;;;;;3.80;0.60;;;;;;;;;;5064064;28;20492;-78
2024/01/13 12:37:57;;;;;;;2.42;0.45;;;;;;;;;;5064197;28;20052;-74
2024/01/13 12:40:29;;;;;;;4.72;0.95;;;;;;;;;;5063481;28;20052;-73
2024/01/13 12:43:04;;;;;;;1.20;0.50;;;;;;;;;;5064148;28;20053;-74
2024/01/13 12:45:34;;;;;;;5.00;0.80;;;;;;;;;;5063920;28;20052;-74
2024/01/13 12:48:09;;;;;;;5.72;0.60;;;;;;;;;;5063762;28;20067;-74
2024/01/13 12:50:41;;;;;;;2.45;0.70;;;;;;;;;;5063820;28;20384;-74
2024/01/13 12:53:13;;;;;;;3.08;0.50;;;;;;;;;;5063903;28;20037;-74
2024/01/13 12:55:43;;;;;;;7.47;0.65;;;;;;;;;;5064152;28;20060;-74
2024/01/13 12:58:13;;;;;;;4.60;0.60;;;;;;;;;;5064158;28;20495;-82
2024/01/13 13:00:44;;;;;;;4.20;0.70;;;;;;;;;;5063975;28;20507;-73
2024/01/13 13:03:14;;;;;;;5.18;0.73;;;;;;;;;;5063312;28;20057;-74
2024/01/13 13:05:47;;;;;;;4.05;0.93;;;;;;;;;;5063384;28;20045;-75
2024/01/13 13:08:18;;;;;;;5.78;1.05;;;;;;;;;;5062916;28;20057;-74
2024/01/13 13:10:48;;;;;;;2.38;0.60;;;;;;;;;;5063552;28;20423;-74
2024/01/13 13:13:21;;;;;;;2.85;0.60;;;;;;;;;;5063260;28;20051;-73
2024/01/13 13:15:53;;;;;;;11.25;1.20;;;;;;;;;;5063483;28;20060;-73
2024/01/13 13:18:24;;;;;;;4.57;1.50;;;;;;;;;;5062549;28;20055;-73
2024/01/13 13:20:55;;;;;;;2.75;0.68;;;;;;;;;;5061461;28;20051;-73
2024/01/13 13:23:25;;;;;;;2.17;0.50;;;;;;;;;;5062697;28;20044;-75
2024/01/13 13:25:57;;;;;;;3.70;0.70;;;;;;;;;;5062537;28;20060;-74
2024/01/13 13:28:28;;;;;;;4.57;0.82;;;;;;;;;;5063483;28;20048;-74
2024/01/13 13:30:59;;;;;;;2.35;0.65;;;;;;;;;;5062841;28;20075;-72
2024/01/13 13:33:30;;;;;;;2.13;0.50;;;;;;;;;;5060607;28;20052;-74
2024/01/13 13:36:02;;;;;;;3.10;0.80;;;;;;;;;;5062619;28;20052;-74
2024/01/13 13:38:33;;;;;;;2.20;0.70;;;;;;;;;;5062436;28;20044;-74
2024/01/13 13:41:04;;;;;;;4.75;0.80;;;;;;;;;;5062345;28;20526;-74
2024/01/13 13:43:34;;;;;;;7.93;0.90;;;;;;;;;;5062404;28;20044;-74
2024/01/13 13:46:05;;;;;;;1.17;0.50;;;;;;;;;;5061952;28;20060;-73
2024/01/13 13:48:36;;;;;;;3.70;0.60;;;;;;;;;;5062076;28;20089;-74
2024/01/13 13:51:08;;;;;;;4.18;0.90;;;;;;;;;;5062643;28;20087;-74
2024/01/13 13:53:39;;;;;;;5.57;1.10;;;;;;;;;;5061268;28;20400;-74
2024/01/13 13:56:09;;;;;;;3.47;0.80;;;;;;;;;;5061816;28;20032;-73
2024/01/13 13:58:40;;;;;;;3.08;1.00;;;;;;;;;;5061897;28;20514;-80
2024/01/13 14:01:10;;;;;;;4.28;2.05;;;;;;;;;;5062364;28;20048;-75
2024/01/13 14:03:40;;;;;;;3.88;0.80;;;;;;;;;;5061408;28;20053;-75
2024/01/13 14:06:11;;;;;;;3.17;0.82;;;;;;;;;;5062660;28;20415;-76
2024/01/13 14:08:45;;;;;;;6.80;0.75;;;;;;;;;;5062180;28;20067;-75
2024/01/13 14:11:15;;;;;;;3.28;0.55;;;;;;;;;;5061206;28;20554;-76
2024/01/13 14:13:45;;;;;;;3.65;0.70;;;;;;;;;;5062102;28;20518;-75
2024/01/13 14:16:17;;;;;;;2.88;0.57;;;;;;;;;;5062435;28;20060;-77
2024/01/13 14:18:48;;;;;;;4.05;0.70;;;;;;;;;;5062061;28;20606;-78
2024/01/13 14:21:18;;;;;;;5.57;0.90;;;;;;;;;;5061504;28;20040;-76
2024/01/13 14:23:48;;;;;;;2.88;0.63;;;;;;;;;;5062138;28;20052;-76
2024/01/13 14:26:19;;;;;;;3.25;0.57;;;;;;;;;;5062477;28;20045;-75
2024/01/13 14:28:50;;;;;;;4.05;0.63;;;;;;;;;;5062064;28;20049;-76
2024/01/13 14:31:21;;;;;;;4.95;1.02;;;;;;;;;;5061937;28;20052;-76
2024/01/13 14:33:51;;;;;;;4.57;1.15;;;;;;;;;;5060682;28;20060;-75
2024/01/13 14:36:22;;;;;;;6.07;1.05;;;;;;;;;;5062006;28;20052;-75
2024/01/13 14:38:53;;;;;;;4.80;0.88;;;;;;;;;;5062077;28;20063;-75
2024/01/13 14:41:26;;;;;;;3.15;0.60;;;;;;;;;;5062170;28;20052;-75
2024/01/13 14:43:58;;;;;;;5.38;0.82;;;;;;;;;;5061044;28;20064;-77
2024/01/13 14:46:29;;;;;;;3.85;0.63;;;;;;;;;;5061592;28;20059;-75
2024/01/13 14:49:04;;;;;;;2.38;0.65;;;;;;;;;;5061514;28;20388;-76
2024/01/13 14:51:36;;;;;;;3.78;0.70;;;;;;;;;;5062091;28;20508;-76
2024/01/13 14:54:07;;;;;;;5.80;0.80;;;;;;;;;;5061505;28;20545;-77
2024/01/13 14:56:38;;;;;;;3.13;0.80;;;;;;;;;;5061924;28;20044;-76
2024/01/13 14:59:08;;;;;;;3.72;0.70;;;;;;;;;;5061674;28;20044;-77
2024/01/13 15:01:39;;;;;;;2.08;0.60;;;;;;;;;;5061412;28;20044;-80
2024/01/13 15:04:11;;;;;;;2.50;0.70;;;;;;;;;;5063454;28;20041;-77
2024/01/13 15:06:42;;;;;;;2.38;0.75;;;;;;;;;;5065785;28;20052;-76
2024/01/13 15:09:13;;;;;;;7.25;0.77;;;;;;;;;;5065453;28;20060;-79